Time;durP1;ratioP1;P1;durP2;ratioP2;P2;SDS_P1;SDS_P2;PMS_P1;PMS_P2;Temp;Humidity;BMP_temperature;BMP_pressure;BME280_temperature;BME280_humidity;BME280_pressure;Samples;Min_cycle;Max_cycle;Signal;HPM_P1;HPM_P2
2022/07/30 00:00:53;;;;;;;10.55;4.95;;;;;;;18.18;80.06;101678.53;5094428;28;20032;-58
2022/07/30 00:03:18;;;;;;;10.63;5.15;;;;;;;18.14;80.54;101676.88;5094579;28;20043;-58
2022/07/30 00:05:43;;;;;;;10.27;4.63;;;;;;;18.16;80.46;101677.69;5094173;28;20559;-58
2022/07/30 00:08:09;;;;;;;12.02;4.90;;;;;;;18.04;80.83;101664.81;5094594;28;20030;-58
2022/07/30 00:10:34;;;;;;;11.18;4.80;;;;;;;18.03;80.90;101669.25;5094345;28;20165;-57
2022/07/30 00:12:59;;;;;;;9.10;4.93;;;;;;;18.02;81.13;101669.28;5094293;28;20040;-58
2022/07/30 00:15:25;;;;;;;8.95;4.68;;;;;;;18.05;81.11;101663.91;5093931;28;20040;-57
2022/07/30 00:17:50;;;;;;;12.77;5.10;;;;;;;18.06;80.88;101665.63;5094253;28;20043;-58
2022/07/30 00:20:16;;;;;;;10.07;5.05;;;;;;;17.99;81.53;101661.47;5094328;28;20039;-58
2022/07/30 00:22:41;;;;;;;9.57;5.78;;;;;;;17.96;81.67;101658.91;5094282;28;20027;-57
2022/07/30 00:25:07;;;;;;;10.50;5.82;;;;;;;17.97;81.77;101665.94;5093443;28;20051;-58
2022/07/30 00:27:34;;;;;;;11.25;5.75;;;;;;;17.94;82.05;101658.94;5093709;28;20059;-58
2022/07/30 00:30:00;;;;;;;13.15;5.85;;;;;;;17.85;83.34;101661.00;5093723;28;20039;-58
2022/07/30 00:32:25;;;;;;;14.15;5.78;;;;;;;17.89;83.17;101660.00;5093735;28;20063;-58
2022/07/30 00:34:50;;;;;;;12.73;6.82;;;;;;;17.83;83.56;101663.72;5093939;28;20035;-58
2022/07/30 00:37:16;;;;;;;12.15;5.82;;;;;;;17.85;83.48;101664.50;5093897;28;20044;-58
2022/07/30 00:39:41;;;;;;;15.15;6.93;;;;;;;17.75;83.94;101678.94;5093752;28;20032;-57
2022/07/30 00:42:06;;;;;;;11.80;6.18;;;;;;;17.74;84.21;101677.22;5093621;28;20034;-58
2022/07/30 00:44:32;;;;;;;9.43;6.65;;;;;;;17.67;84.50;101678.28;5093478;28;20451;-57
2022/07/30 00:46:57;;;;;;;12.88;6.32;;;;;;;17.63;85.12;101668.69;5093652;28;20028;-58
2022/07/30 00:49:23;;;;;;;12.35;7.28;;;;;;;17.55;85.19;101668.03;5093332;28;20126;-58
2022/07/30 00:51:49;;;;;;;15.23;7.53;;;;;;;17.52;86.30;101663.69;5093555;28;20445;-58
2022/07/30 00:54:15;;;;;;;13.90;7.55;;;;;;;17.57;86.07;101669.75;5093361;28;20039;-58
2022/07/30 00:56:40;;;;;;;9.77;7.07;;;;;;;17.55;86.24;101663.63;5093050;28;20039;-58
2022/07/30 00:59:06;;;;;;;11.95;6.93;;;;;;;17.50;86.64;101668.16;5093303;28;20090;-58
2022/07/30 01:01:32;;;;;;;14.20;7.38;;;;;;;17.47;86.84;101667.41;5093114;28;20071;-58
2022/07/30 01:03:57;;;;;;;11.48;7.57;;;;;;;17.43;87.35;101663.97;5093244;28;20514;-57
2022/07/30 01:06:23;;;;;;;14.20;8.30;;;;;;;17.25;89.08;101659.22;5093251;28;20043;-58
2022/07/30 01:08:48;;;;;;;14.52;8.50;;;;;;;17.33;88.52;101665.13;5092913;28;20043;-58
2022/07/30 01:11:14;;;;;;;13.77;8.30;;;;;;;17.32;88.65;101652.81;5093041;28;20187;-57
2022/07/30 01:13:40;;;;;;;16.20;8.07;;;;;;;17.36;88.58;101659.75;5092947;28;20281;-57
2022/07/30 01:16:05;;;;;;;15.73;7.82;;;;;;;17.34;88.44;101653.66;5093073;28;20043;-57
2022/07/30 01:21:22;;;;;;;13.25;8.68;;;;;;;17.22;89.13;101659.28;5093058;28;20112;-57
2022/07/30 01:23:52;;;;;;;15.15;8.80;;;;;;;17.19;89.98;101659.38;5092751;28;20134;-57
2022/07/30 01:26:19;;;;;;;14.48;9.00;;;;;;;17.19;90.11;101648.78;5092481;28;20365;-58
2022/07/30 01:28:49;;;;;;;16.45;9.13;;;;;;;17.17;89.86;101656.75;5092588;28;20051;-57
2022/07/30 01:31:15;;;;;;;14.32;9.07;;;;;;;17.20;89.85;101653.16;5092713;28;20051;-58
2022/07/30 01:33:44;;;;;;;19.08;9.10;;;;;;;17.14;89.94;101656.00;5092719;28;20044;-58
2022/07/30 01:36:13;;;;;;;13.30;9.10;;;;;;;17.13;90.27;101656.91;5092716;28;20696;-58
2022/07/30 01:38:40;;;;;;;18.60;9.80;;;;;;;17.12;90.03;101660.47;5092431;28;20110;-57
2022/07/30 01:41:07;;;;;;;14.38;10.05;;;;;;;17.05;90.41;101662.41;5092616;28;20089;-58
2022/07/30 01:43:34;;;;;;;19.90;10.15;;;;;;;16.98;91.16;101666.09;5092554;28;20114;-58
2022/07/30 01:46:01;;;;;;;15.88;10.52;;;;;;;16.96;91.63;101660.03;5092588;28;20040;-58
2022/07/30 01:48:28;;;;;;;16.90;10.00;;;;;;;16.95;91.93;101663.56;5092543;28;20451;-58
2022/07/30 01:50:57;;;;;;;16.08;10.40;;;;;;;16.90;91.68;101668.09;5092348;28;20036;-58
2022/07/30 01:53:28;;;;;;;15.30;9.93;;;;;;;16.84;91.99;101669.13;5092150;28;20027;-58
2022/07/30 01:55:55;;;;;;;16.42;10.35;;;;;;;16.81;92.54;101661.25;5092344;28;20082;-58
2022/07/30 01:58:23;;;;;;;18.13;11.23;;;;;;;16.75;92.80;101666.72;5092331;28;20039;-58
2022/07/30 02:00:49;;;;;;;14.30;10.88;;;;;;;16.67;93.23;101663.41;5092252;28;20043;-58
2022/07/30 02:03:15;;;;;;;15.95;11.77;;;;;;;16.73;93.43;101662.38;5091916;28;20032;-58
2022/07/30 02:05:43;;;;;;;16.85;11.18;;;;;;;16.73;93.50;101659.75;5091820;28;20055;-58
2022/07/30 02:08:39;;;;;;;17.77;11.48;;;;;;;16.66;92.91;101667.81;5092214;28;20036;-58
2022/07/30 02:11:11;;;;;;;17.92;11.98;;;;;;;16.69;93.52;101667.75;5089341;28;20044;-57
2022/07/30 02:13:46;;;;;;;19.33;12.70;;;;;;;16.63;94.61;101670.53;5091455;28;20093;-58
2022/07/30 02:16:21;;;;;;;19.10;11.80;;;;;;;16.66;94.14;101673.09;5091715;28;20473;-58
2022/07/30 02:19:03;;;;;;;16.77;12.77;;;;;;;16.66;93.76;101672.22;5091968;28;20032;-57
2022/07/30 02:21:33;;;;;;;19.63;13.27;;;;;;;16.59;94.29;101666.22;5091698;28;20032;-58
2022/07/30 02:24:04;;;;;;;19.08;13.20;;;;;;;16.52;94.98;101669.03;5091803;28;20127;-59
2022/07/30 02:26:31;;;;;;;20.92;13.65;;;;;;;16.49;95.20;101669.97;5091729;28;20063;-58
2022/07/30 02:28:59;;;;;;;19.05;13.15;;;;;;;16.53;94.58;101668.13;5091424;28;20043;-58
2022/07/30 02:31:28;;;;;;;18.05;12.77;;;;;;;16.46;95.06;101674.47;5091921;28;20410;-58
2022/07/30 02:33:57;;;;;;;23.85;14.00;;;;;;;16.41;95.89;101665.81;5091831;28;20075;-57
2022/07/30 02:36:24;;;;;;;19.80;13.75;;;;;;;16.42;95.37;101668.41;5091325;28;20123;-58
2022/07/30 02:38:50;;;;;;;21.80;14.75;;;;;;;16.38;95.54;101663.22;5091725;28;20028;-57
2022/07/30 02:41:18;;;;;;;18.52;14.00;;;;;;;16.43;95.17;101675.44;5091716;28;20111;-57
2022/07/30 02:43:46;;;;;;;21.45;14.68;;;;;;;16.45;95.64;101670.94;5091602;28;20101;-58
2022/07/30 02:46:14;;;;;;;21.60;14.45;;;;;;;16.42;94.98;101671.06;5091754;28;20630;-58
2022/07/30 02:48:40;;;;;;;21.95;14.48;;;;;;;16.35;95.41;101672.97;5091876;28;20039;-57
2022/07/30 02:51:07;;;;;;;19.10;14.00;;;;;;;16.32;95.45;101670.38;5091296;28;20104;-58
2022/07/30 02:53:33;;;;;;;19.38;14.38;;;;;;;16.30;95.60;101668.69;5091499;28;20413;-58
2022/07/30 02:55:59;;;;;;;18.50;13.80;;;;;;;16.34;94.91;101673.88;5091293;28;20108;-58
2022/07/30 02:58:26;;;;;;;19.35;14.85;;;;;;;16.25;94.96;101671.47;5091654;28;20047;-60
2022/07/30 03:00:55;;;;;;;21.80;15.25;;;;;;;16.18;95.55;101675.13;5091637;28;20032;-58
2022/07/30 03:03:27;;;;;;;23.45;15.95;;;;;;;16.08;96.35;101676.28;5091637;28;20032;-59
2022/07/30 03:05:53;;;;;;;;;;;;;;;16.12;94.11;101680.56;5091968;28;20531;-58
2022/07/30 03:08:18;;;;;;;17.17;14.43;;;;;;;16.08;96.49;101678.03;5091142;28;20014;-58
2022/07/30 03:10:44;;;;;;;23.25;16.13;;;;;;;16.07;96.48;101682.44;5091171;28;20071;-58
2022/07/30 03:13:11;;;;;;;20.33;15.07;;;;;;;16.12;96.97;101683.19;5091372;28;20497;-58
2022/07/30 03:15:43;;;;;;;21.63;15.57;;;;;;;16.10;96.76;101686.78;5091240;28;20455;-58
2022/07/30 03:18:11;;;;;;;23.42;16.45;;;;;;;16.07;97.29;101684.22;5091367;28;20060;-59
2022/07/30 03:20:38;;;;;;;20.55;16.20;;;;;;;16.09;96.91;101677.13;5091271;28;20036;-58
2022/07/30 03:23:05;;;;;;;22.80;15.88;;;;;;;16.05;96.81;101680.75;5090905;28;20062;-57
2022/07/30 03:25:32;;;;;;;23.25;16.55;;;;;;;16.07;96.94;101679.81;5091279;28;20028;-58
2022/07/30 03:27:59;;;;;;;23.15;15.05;;;;;;;16.04;96.18;101677.22;5091176;28;20028;-57
2022/07/30 03:30:25;;;;;;;18.95;15.00;;;;;;;16.00;95.73;101665.88;5090797;28;20441;-57
2022/07/30 03:32:52;;;;;;;22.00;16.50;;;;;;;15.97;96.24;101670.34;5094573;28;20044;-57
2022/07/30 03:35:20;;;;;;;21.55;15.73;;;;;;;15.94;96.44;101675.69;5094861;28;20056;-58
2022/07/30 03:37:46;;;;;;;21.70;16.63;;;;;;;15.87;97.47;101680.25;5095025;28;20389;-58
2022/07/30 03:40:12;;;;;;;22.80;16.00;;;;;;;15.93;97.00;101681.91;5095133;28;20035;-57
2022/07/30 03:42:38;;;;;;;23.08;16.70;;;;;;;15.91;96.70;101681.94;5094728;28;20459;-57
2022/07/30 03:45:06;;;;;;;22.63;16.38;;;;;;;15.88;97.01;101682.00;5094964;28;20147;-57
2022/07/30 03:47:33;;;;;;;23.88;16.40;;;;;;;15.91;96.69;101691.63;5094714;28;20044;-58
2022/07/30 03:49:59;;;;;;;22.88;16.13;;;;;;;15.91;96.20;101681.06;5094510;28;20351;-57
2022/07/30 03:52:27;;;;;;;23.17;16.92;;;;;;;15.83;96.88;101678.56;5094483;28;20116;-58
2022/07/30 03:54:52;;;;;;;24.08;15.80;;;;;;;15.86;96.27;101696.13;5094551;28;20135;-57
2022/07/30 03:57:18;;;;;;;20.80;16.35;;;;;;;15.78;96.23;101698.03;5094927;28;20032;-58
2022/07/30 03:59:44;;;;;;;22.67;16.45;;;;;;;15.74;96.91;101705.16;5094787;28;20036;-57
2022/07/30 04:02:09;;;;;;;22.75;16.55;;;;;;;15.65;97.17;101702.72;5094399;28;20093;-57
2022/07/30 04:04:34;;;;;;;21.08;16.73;;;;;;;15.68;97.78;101701.78;5094413;28;20035;-57
2022/07/30 04:07:00;;;;;;;20.38;16.05;;;;;;;15.69;97.62;101704.38;5094301;28;20055;-57
2022/07/30 04:09:25;;;;;;;23.60;16.13;;;;;;;15.66;97.69;101707.97;5094258;28;20024;-57
2022/07/30 04:11:50;;;;;;;19.90;15.65;;;;;;;15.71;97.24;101705.22;5094231;28;20266;-57
2022/07/30 04:14:16;;;;;;;22.63;16.42;;;;;;;15.69;97.56;101703.53;5094237;28;20044;-57
2022/07/30 04:16:59;;;;;;;20.77;16.30;;;;;;;15.74;97.30;101709.59;5093999;28;20036;-58
2022/07/30 04:19:30;;;;;;;20.50;15.98;;;;;;;15.72;97.33;101721.94;5094087;28;20036;-58
2022/07/30 04:21:57;;;;;;;19.85;16.17;;;;;;;15.71;97.79;101718.44;5094319;28;20101;-58
2022/07/30 04:24:24;;;;;;;21.60;15.80;;;;;;;15.64;98.11;101722.06;5094126;28;20032;-57
2022/07/30 04:26:50;;;;;;;21.35;16.20;;;;;;;15.64;98.32;101720.31;5094131;28;20145;-57
2022/07/30 04:29:17;;;;;;;21.75;16.13;;;;;;;15.64;98.43;101716.81;5093365;28;20043;-57
2022/07/30 04:31:43;;;;;;;19.60;15.45;;;;;;;15.64;98.41;101722.94;5093856;28;20028;-58
2022/07/30 04:34:12;;;;;;;19.88;15.68;;;;;;;15.66;98.56;101723.78;5093564;28;20059;-58
2022/07/30 04:36:39;;;;;;;21.40;15.80;;;;;;;15.70;98.27;101726.38;5094132;28;20085;-58
2022/07/30 04:39:04;;;;;;;21.05;15.32;;;;;;;15.75;97.78;101724.50;5093780;28;20095;-58
2022/07/30 04:41:29;;;;;;;19.38;15.10;;;;;;;15.69;98.12;101727.28;5093522;28;20420;-58
2022/07/30 04:43:55;;;;;;;20.23;14.95;;;;;;;15.64;98.28;101738.78;5093281;28;20032;-58
2022/07/30 04:46:20;;;;;;;22.10;14.43;;;;;;;15.58;98.33;101724.84;5093294;28;20427;-58
2022/07/30 04:48:45;;;;;;;19.10;14.38;;;;;;;15.71;98.06;101746.59;5093347;28;20119;-57
2022/07/30 04:51:16;;;;;;;22.15;14.38;;;;;;;15.74;98.14;101746.53;5093433;28;20064;-58
2022/07/30 04:53:42;;;;;;;19.47;13.57;;;;;;;15.77;97.92;101746.44;5093189;28;20082;-57
2022/07/30 04:56:08;;;;;;;18.35;14.40;;;;;;;15.77;98.04;101742.03;5093461;28;20032;-59
2022/07/30 04:58:34;;;;;;;18.65;14.07;;;;;;;15.80;97.71;101757.81;5093495;28;20036;-58
2022/07/30 05:01:01;;;;;;;20.30;14.38;;;;;;;15.82;97.86;101752.50;5093181;28;20114;-58
2022/07/30 05:03:28;;;;;;;20.77;13.98;;;;;;;15.79;98.44;101753.44;5093213;28;20051;-58
2022/07/30 05:05:55;;;;;;;19.50;14.02;;;;;;;15.78;98.50;101759.59;5092830;28;20502;-58
2022/07/30 05:08:22;;;;;;;18.92;14.23;;;;;;;15.88;97.74;101757.66;5093265;28;20110;-58
2022/07/30 05:10:48;;;;;;;19.27;15.23;;;;;;;15.88;97.93;101752.38;5092958;28;20039;-57
2022/07/30 05:13:13;;;;;;;21.95;14.65;;;;;;;15.87;97.96;101753.28;5092907;28;20036;-57
2022/07/30 05:15:39;;;;;;;21.85;14.82;;;;;;;15.87;98.19;101755.94;5092918;28;20028;-58
2022/07/30 05:18:05;;;;;;;19.23;14.32;;;;;;;15.87;98.21;101751.50;5093057;28;20059;-57
2022/07/30 05:20:30;;;;;;;23.08;14.63;;;;;;;15.89;98.53;101746.22;5093152;28;20040;-58
2022/07/30 05:22:55;;;;;;;20.25;13.65;;;;;;;15.86;98.71;101751.53;5092896;28;20143;-58
2022/07/30 05:25:20;;;;;;;18.63;13.90;;;;;;;15.95;98.19;101751.34;5092760;28;20028;-57
2022/07/30 05:27:46;;;;;;;21.02;13.73;;;;;;;15.99;97.85;101750.38;5092885;28;20337;-58
2022/07/30 05:30:11;;;;;;;16.33;13.75;;;;;;;16.01;98.30;101748.59;5092609;28;20047;-58
2022/07/30 05:32:36;;;;;;;21.48;14.55;;;;;;;16.05;97.85;101750.25;5092327;28;20062;-59
2022/07/30 05:35:02;;;;;;;24.73;14.70;;;;;;;15.98;98.30;101749.50;5092587;28;20051;-58
2022/07/30 05:37:27;;;;;;;17.65;14.07;;;;;;;15.99;98.74;101763.59;5092663;28;20039;-58
2022/07/30 05:39:53;;;;;;;20.90;13.23;;;;;;;16.06;98.10;101765.19;5092666;28;20060;-57
2022/07/30 05:42:18;;;;;;;20.48;13.80;;;;;;;16.12;98.58;101770.34;5092557;28;20266;-58
2022/07/30 05:44:43;;;;;;;20.90;15.27;;;;;;;16.07;98.63;101769.59;5092252;28;20521;-58
2022/07/30 05:47:08;;;;;;;19.13;14.38;;;;;;;16.12;98.39;101765.06;5092542;28;20089;-58
2022/07/30 05:49:34;;;;;;;19.30;15.15;;;;;;;16.18;98.41;101769.34;5074260;28;20036;-59
2022/07/30 05:51:59;;;;;;;19.27;14.48;;;;;;;16.19;98.46;101763.16;5092335;28;20044;-58
2022/07/30 05:54:24;;;;;;;22.80;15.45;;;;;;;16.23;98.58;101757.78;5091627;28;20032;-59
2022/07/30 05:56:49;;;;;;;18.55;14.55;;;;;;;16.25;98.69;101763.91;5092245;28;20047;-59
2022/07/30 05:59:15;;;;;;;19.08;13.57;;;;;;;16.35;98.13;101761.91;5092135;28;20378;-58
2022/07/30 06:01:40;;;;;;;16.08;12.77;;;;;;;16.44;97.92;101768.78;5092026;28;20100;-58
2022/07/30 06:04:05;;;;;;;21.45;13.38;;;;;;;16.43;98.08;101773.19;5092157;28;20034;-58
2022/07/30 06:06:30;;;;;;;19.92;12.98;;;;;;;16.41;98.28;101771.47;5092190;28;20086;-58
2022/07/30 06:08:56;;;;;;;17.53;12.83;;;;;;;16.44;97.79;101782.84;5092215;28;20040;-58
2022/07/30 06:11:21;;;;;;;20.25;12.95;;;;;;;16.47;98.11;101766.03;5091968;28;20281;-59
2022/07/30 06:13:46;;;;;;;17.77;12.63;;;;;;;16.67;97.14;101775.28;5091938;28;20047;-57
2022/07/30 06:16:11;;;;;;;22.77;13.30;;;;;;;16.70;96.67;101769.91;5091879;28;20067;-57
2022/07/30 06:18:37;;;;;;;17.77;13.07;;;;;;;16.68;96.28;101770.84;5101109;28;20269;-58
2022/07/30 06:21:02;;;;;;;17.80;12.43;;;;;;;16.71;96.35;101781.38;5095578;28;20032;-59
2022/07/30 06:23:27;;;;;;;17.98;12.93;;;;;;;16.77;96.43;101777.72;5091784;28;20047;-58
2022/07/30 06:25:53;;;;;;;18.80;12.10;;;;;;;16.88;95.53;101783.59;5091114;28;20123;-59
2022/07/30 06:28:18;;;;;;;13.68;11.60;;;;;;;16.96;95.16;101785.16;5091143;28;20066;-58
2022/07/30 06:30:44;;;;;;;17.13;11.40;;;;;;;17.01;94.31;101783.25;5091516;28;20039;-58
2022/07/30 06:33:10;;;;;;;18.05;9.93;;;;;;;17.06;93.81;101791.09;5098326;28;20066;-59
2022/07/30 06:35:35;;;;;;;15.35;9.43;;;;;;;17.04;94.00;101782.31;5111773;28;20028;-58
2022/07/30 06:38:01;;;;;;;13.00;10.02;;;;;;;17.03;93.99;101789.38;5112151;28;20032;-59
2022/07/30 06:40:26;;;;;;;15.02;9.90;;;;;;;17.00;94.16;101792.09;5111898;28;20036;-60
2022/07/30 06:42:51;;;;;;;12.05;9.38;;;;;;;17.07;94.07;101791.94;5112089;28;20124;-58
2022/07/30 06:45:17;;;;;;;14.55;9.88;;;;;;;17.05;93.61;101791.97;5111845;28;20041;-59
2022/07/30 06:47:42;;;;;;;13.30;9.00;;;;;;;17.06;93.48;101788.44;5111945;28;20100;-56
2022/07/30 06:50:08;;;;;;;13.93;8.82;;;;;;;17.08;93.68;101786.63;5111915;28;20213;-58
2022/07/30 06:52:33;;;;;;;15.85;8.35;;;;;;;17.12;93.03;101792.72;5111775;28;20071;-58
2022/07/30 06:54:58;;;;;;;12.27;7.83;;;;;;;17.19;92.55;101783.69;5112005;28;20039;-58
2022/07/30 06:57:24;;;;;;;17.75;7.63;;;;;;;17.31;92.36;101788.69;5111727;28;20701;-57
2022/07/30 06:59:49;;;;;;;11.32;7.22;;;;;;;17.33;91.62;101798.28;5111435;28;20027;-59
2022/07/30 07:02:15;;;;;;;13.55;7.07;;;;;;;17.39;91.50;101791.97;5111532;28;20050;-57
2022/07/30 07:04:40;;;;;;;12.80;7.78;;;;;;;17.59;90.70;101781.72;5111456;28;20118;-58
2022/07/30 07:07:06;;;;;;;12.10;7.93;;;;;;;17.80;89.84;101800.63;5114663;28;20066;-58
2022/07/30 07:09:31;;;;;;;11.90;7.18;;;;;;;17.92;88.96;101801.13;5115682;28;20038;-58
2022/07/30 07:11:56;;;;;;;11.00;6.68;;;;;;;18.11;87.73;101801.47;5115596;28;20480;-60
2022/07/30 07:14:21;;;;;;;9.00;5.82;;;;;;;18.23;86.27;101803.75;5115603;28;20032;-59
2022/07/30 07:16:48;;;;;;;9.70;5.30;;;;;;;18.29;85.02;101798.28;5115661;28;20059;-59
2022/07/30 07:19:13;;;;;;;9.70;5.78;;;;;;;18.33;84.93;101807.00;5115616;28;20065;-59
2022/07/30 07:21:38;;;;;;;8.68;5.40;;;;;;;18.37;84.41;101798.03;5115670;28;20534;-59
2022/07/30 07:24:04;;;;;;;9.15;5.18;;;;;;;18.41;83.31;101795.25;5115696;28;20046;-59
2022/07/30 07:26:32;;;;;;;13.20;5.30;;;;;;;18.40;82.80;101801.47;5115627;28;20024;-59
2022/07/30 07:28:57;;;;;;;8.48;5.13;;;;;;;18.49;82.36;101796.81;5115383;28;20027;-60
2022/07/30 07:31:23;;;;;;;9.18;4.80;;;;;;;18.53;81.60;101801.09;5115435;28;20055;-59
2022/07/30 07:33:48;;;;;;;9.18;4.78;;;;;;;18.62;80.62;101803.47;5115310;28;20390;-58
2022/07/30 07:36:14;;;;;;;10.13;4.70;;;;;;;18.70;79.44;101799.66;5115459;28;20039;-59
2022/07/30 07:38:39;;;;;;;7.95;4.88;;;;;;;18.74;79.24;101800.44;5115419;28;20058;-58
2022/07/30 07:41:05;;;;;;;7.10;4.30;;;;;;;18.90;79.30;101795.50;5115222;28;20038;-57
2022/07/30 07:43:30;;;;;;;7.15;4.20;;;;;;;19.08;78.29;101801.06;5115129;28;20035;-57
2022/07/30 07:45:56;;;;;;;7.38;4.57;;;;;;;19.05;78.23;101808.25;5115091;28;20137;-57
2022/07/30 07:48:21;;;;;;;10.70;5.25;;;;;;;18.86;79.63;101801.84;5115141;28;20051;-59
2022/07/30 07:50:46;;;;;;;8.98;4.15;;;;;;;18.69;78.99;101799.75;5108417;28;20036;-58
2022/07/30 07:53:12;;;;;;;7.68;3.95;;;;;;;18.58;79.10;101804.47;5097384;28;20087;-59
2022/07/30 07:55:37;;;;;;;9.77;3.92;;;;;;;18.53;79.09;101799.28;5094650;28;20769;-49
2022/07/30 07:58:03;;;;;;;6.90;3.70;;;;;;;18.52;78.95;101799.38;5094556;28;20027;-58
2022/07/30 08:00:28;;;;;;;7.70;3.60;;;;;;;18.52;77.84;101794.06;5094393;28;20028;-58
2022/07/30 08:02:54;;;;;;;9.98;3.58;;;;;;;18.54;77.11;101797.50;5094431;28;20120;-58
2022/07/30 08:05:19;;;;;;;6.68;3.33;;;;;;;18.56;77.12;101798.34;5094287;28;20409;-59
2022/07/30 08:07:44;;;;;;;6.63;3.90;;;;;;;18.51;77.30;101803.81;5094110;28;20157;-58
2022/07/30 08:10:12;;;;;;;8.80;3.83;;;;;;;18.52;76.89;101802.03;5094222;28;20050;-58
2022/07/30 08:12:38;;;;;;;5.90;3.55;;;;;;;18.60;76.31;101802.66;5094021;28;20039;-59
2022/07/30 08:15:04;;;;;;;7.07;3.33;;;;;;;18.78;75.67;101800.28;5094080;28;20028;-59
2022/07/30 08:17:29;;;;;;;5.53;3.30;;;;;;;18.81;74.20;101799.34;5092978;28;20516;-59
2022/07/30 08:19:59;;;;;;;5.82;3.67;;;;;;;18.76;74.85;101798.59;5094204;28;20036;-63
2022/07/30 08:22:25;;;;;;;8.05;3.20;;;;;;;18.70;74.04;101797.00;5094248;28;20056;-57
2022/07/30 08:24:50;;;;;;;7.90;3.13;;;;;;;18.71;74.28;101795.22;5093413;28;20422;-57
2022/07/30 08:27:17;;;;;;;6.63;3.42;;;;;;;18.73;75.45;101794.25;5093863;28;20040;-57
2022/07/30 08:29:42;;;;;;;6.22;3.75;;;;;;;18.77;74.55;101805.66;5093745;28;20058;-57
2022/07/30 08:32:07;;;;;;;5.65;3.42;;;;;;;18.74;74.43;101797.78;5094147;28;20032;-57
2022/07/30 08:34:32;;;;;;;9.88;3.78;;;;;;;18.78;74.19;101791.47;5093831;28;20438;-57
2022/07/30 08:36:58;;;;;;;5.38;2.80;;;;;;;18.86;72.54;101802.72;5093876;28;20032;-57
2022/07/30 08:39:23;;;;;;;6.55;2.80;;;;;;;18.85;70.85;101782.41;5093760;28;20426;-65
2022/07/30 08:41:49;;;;;;;4.90;2.93;;;;;;;18.93;70.66;101796.28;5093488;28;20062;-59
2022/07/30 08:44:17;;;;;;;5.90;3.10;;;;;;;18.92;71.55;101798.97;5093661;28;20786;-58
2022/07/30 08:46:45;;;;;;;6.38;3.92;;;;;;;18.93;71.87;101790.97;5093627;28;20122;-59
2022/07/30 08:49:11;;;;;;;4.43;3.17;;;;;;;19.00;71.73;101797.81;5093570;28;20107;-59
2022/07/30 08:51:37;;;;;;;7.18;3.17;;;;;;;19.06;70.76;101791.41;5093616;28;20036;-60
2022/07/30 08:54:04;;;;;;;5.78;3.03;;;;;;;19.11;70.87;101790.34;5093333;28;20111;-61
2022/07/30 08:56:31;;;;;;;4.50;2.83;;;;;;;19.30;70.91;101803.00;5093387;28;20030;-60
2022/07/30 08:58:57;;;;;;;7.80;3.60;;;;;;;19.28;69.06;101796.88;5093302;28;20036;-60
2022/07/30 09:01:22;;;;;;;4.40;3.22;;;;;;;19.30;69.80;101800.34;5093389;28;20039;-59
2022/07/30 09:03:47;;;;;;;8.20;3.08;;;;;;;19.35;69.46;101798.41;5093481;28;20054;-59
2022/07/30 09:06:15;;;;;;;10.38;2.78;;;;;;;19.46;67.04;101791.78;5093392;28;20055;-59
2022/07/30 09:08:40;;;;;;;9.13;2.60;;;;;;;19.50;65.98;101792.59;5093248;28;20519;-58
2022/07/30 09:11:06;;;;;;;4.85;2.80;;;;;;;20.01;65.67;101792.50;5092778;28;20108;-59
2022/07/30 09:13:34;;;;;;;4.72;2.55;;;;;;;21.28;61.80;101780.34;5092809;28;20093;-58
2022/07/30 09:16:01;;;;;;;3.65;2.70;;;;;;;23.08;55.88;101791.47;5092905;28;20042;-59
2022/07/30 09:18:28;;;;;;;6.68;2.95;;;;;;;24.01;52.22;101799.09;5092870;28;20028;-59
2022/07/30 09:20:53;;;;;;;4.65;2.80;;;;;;;25.31;48.63;101788.94;5092796;28;20118;-59
2022/07/30 09:23:18;;;;;;;4.63;2.03;;;;;;;25.82;46.22;101796.59;5092812;28;20114;-59
2022/07/30 09:25:46;;;;;;;4.90;2.05;;;;;;;26.14;45.54;101799.97;5092887;28;20036;-59
2022/07/30 09:28:12;;;;;;;5.35;2.20;;;;;;;25.90;45.76;101805.03;5092519;28;20040;-59
2022/07/30 09:30:47;;;;;;;6.28;2.40;;;;;;;25.70;47.58;101805.41;5092170;28;20036;-60
2022/07/30 09:33:13;;;;;;;3.88;1.90;;;;;;;25.38;47.09;101805.53;5092583;28;20074;-59
2022/07/30 09:35:39;;;;;;;5.15;2.00;;;;;;;24.76;47.62;101806.50;5092767;28;20089;-59
2022/07/30 09:38:07;;;;;;;4.07;2.00;;;;;;;24.02;48.99;101817.75;5092555;28;20047;-60
2022/07/30 09:40:32;;;;;;;4.55;2.20;;;;;;;23.71;50.79;101813.16;5092468;28;20423;-60
2022/07/30 09:43:09;;;;;;;5.85;2.30;;;;;;;23.33;52.46;101808.91;5092310;28;20136;-58
2022/07/30 09:45:35;;;;;;;4.72;2.40;;;;;;;22.89;51.55;101801.31;5092324;28;20020;-58
2022/07/30 09:48:01;;;;;;;4.07;2.25;;;;;;;22.79;53.19;101800.94;5092427;28;20437;-58
2022/07/30 09:50:27;;;;;;;4.88;2.17;;;;;;;22.72;53.37;101806.59;5092281;28;20036;-59
2022/07/30 09:52:53;;;;;;;6.45;2.10;;;;;;;22.74;53.94;101796.72;5092137;28;20039;-58
2022/07/30 09:55:31;;;;;;;4.97;2.08;;;;;;;22.79;54.35;101797.41;5092145;28;20109;-58
2022/07/30 09:58:01;;;;;;;3.38;1.70;;;;;;;22.93;53.25;101797.56;5092289;28;20027;-60
2022/07/30 10:00:28;;;;;;;4.30;2.22;;;;;;;23.11;51.56;101791.31;5092225;28;20350;-59
2022/07/30 10:02:54;;;;;;;4.55;2.28;;;;;;;23.26;51.49;101782.50;5092088;28;20102;-59
2022/07/30 10:05:20;;;;;;;3.60;1.92;;;;;;;23.32;51.79;101772.47;5091854;28;20086;-59
2022/07/30 10:07:58;;;;;;;3.65;1.67;;;;;;;23.47;52.37;101788.56;5092033;28;20035;-58
2022/07/30 10:10:26;;;;;;;4.80;2.88;;;;;;;23.63;51.49;101785.09;5091832;28;20039;-59
2022/07/30 10:12:59;;;;;;;4.82;2.00;;;;;;;23.65;49.95;101789.44;5092131;28;20039;-59
2022/07/30 10:15:29;;;;;;;5.10;1.60;;;;;;;23.81;49.57;101793.00;5092053;28;20357;-59
2022/07/30 10:17:55;;;;;;;3.67;1.70;;;;;;;23.93;49.26;101791.47;5091901;28;20031;-59
2022/07/30 10:20:21;;;;;;;3.25;1.75;;;;;;;23.83;48.84;101785.78;5091522;28;20097;-60
2022/07/30 10:22:47;;;;;;;4.22;1.95;;;;;;;23.75;48.88;101787.97;5091855;28;20398;-58
2022/07/30 10:25:16;;;;;;;4.43;2.10;;;;;;;23.86;48.87;101782.94;5091471;28;20147;-58
2022/07/30 10:27:42;;;;;;;6.30;1.70;;;;;;;23.80;48.90;101780.59;5091708;28;20040;-59
2022/07/30 10:30:08;;;;;;;3.72;1.40;;;;;;;24.04;48.46;101761.50;5091602;28;20500;-58
2022/07/30 10:32:33;;;;;;;2.35;1.35;;;;;;;24.28;47.28;101785.09;5091520;28;20036;-59
2022/07/30 10:34:59;;;;;;;5.00;1.70;;;;;;;24.38;46.74;101777.44;5091547;28;20118;-59
2022/07/30 10:37:26;;;;;;;5.20;1.70;;;;;;;24.48;47.08;101777.75;5091295;28;20032;-60
2022/07/30 10:39:55;;;;;;;2.13;1.33;;;;;;;24.58;46.46;101785.19;5091597;28;20036;-59
2022/07/30 10:42:58;;;;;;;4.63;1.90;;;;;;;24.55;46.21;101780.00;5091279;28;20046;-59
2022/07/30 10:46:08;;;;;;;4.45;1.65;;;;;;;24.50;47.14;101783.91;5091481;28;20034;-59
2022/07/30 10:48:34;;;;;;;5.22;1.73;;;;;;;24.55;46.62;101768.44;5091664;28;20043;-59
2022/07/30 10:50:59;;;;;;;3.65;1.60;;;;;;;24.65;46.31;101783.00;5091426;28;20312;-59
2022/07/30 10:53:33;;;;;;;6.00;1.50;;;;;;;24.79;46.55;101782.22;5091276;28;20068;-59
2022/07/30 10:56:11;;;;;;;3.67;1.60;;;;;;;24.92;46.06;101786.78;5091317;28;20047;-60
2022/07/30 10:58:56;;;;;;;3.45;1.70;;;;;;;25.09;46.37;101788.50;5091532;28;20040;-60
2022/07/30 11:01:22;;;;;;;3.20;1.50;;;;;;;25.23;44.60;101777.84;5091405;28;20107;-60
2022/07/30 11:04:17;;;;;;;3.25;1.35;;;;;;;25.19;45.20;101776.28;5091325;28;20131;-59
2022/07/30 11:06:43;;;;;;;2.72;1.45;;;;;;;25.33;44.02;101765.59;5091477;28;20349;-59
2022/07/30 11:09:38;;;;;;;3.75;1.60;;;;;;;25.32;45.56;101779.06;5091304;28;20054;-59
2022/07/30 11:12:05;;;;;;;2.28;1.70;;;;;;;25.29;43.64;101777.44;5091128;28;20039;-60
2022/07/30 11:14:51;;;;;;;4.80;1.45;;;;;;;25.42;45.06;101776.72;5091694;28;20028;-59
2022/07/30 11:17:17;;;;;;;5.20;1.50;;;;;;;25.52;43.10;101777.88;5074032;28;20054;-60
2022/07/30 11:20:07;;;;;;;6.50;1.80;;;;;;;25.51;44.62;101776.16;5091403;28;20043;-60